sensor_id;sensor_type;location;lat;lon;timestamp;temperature;humidity
5924;DHT22;2987;50.884;14.818;2022-12-29T00:01:28;6.60;99.90
5924;DHT22;2987;50.884;14.818;2022-12-29T00:03:57;6.60;99.90
5924;DHT22;2987;50.884;14.818;2022-12-29T00:06:24;6.70;99.90
5924;DHT22;2987;50.884;14.818;2022-12-29T00:08:51;6.60;99.90
5924;DHT22;2987;50.884;14.818;2022-12-29T00:11:22;6.60;99.90
5924;DHT22;2987;50.884;14.818;2022-12-29T00:13:49;6.70;99.90
5924;DHT22;2987;50.884;14.818;2022-12-29T00:16:36;6.60;99.90
5924;DHT22;2987;50.884;14.818;2022-12-29T00:19:04;6.60;99.90
5924;DHT22;2987;50.884;14.818;2022-12-29T00:21:30;6.60;99.90
5924;DHT22;2987;50.884;14.818;2022-12-29T00:24:20;6.40;99.90
5924;DHT22;2987;50.884;14.818;2022-12-29T00:27:04;6.40;99.90
5924;DHT22;2987;50.884;14.818;2022-12-29T00:29:53;6.40;99.90
5924;DHT22;2987;50.884;14.818;2022-12-29T00:32:37;6.80;99.90
5924;DHT22;2987;50.884;14.818;2022-12-29T00:35:33;6.60;99.90
5924;DHT22;2987;50.884;14.818;2022-12-29T00:38:03;6.60;99.90
5924;DHT22;2987;50.884;14.818;2022-12-29T00:40:49;6.70;99.90
5924;DHT22;2987;50.884;14.818;2022-12-29T00:43:34;6.60;99.90
5924;DHT22;2987;50.884;14.818;2022-12-29T00:46:18;6.70;99.90
5924;DHT22;2987;50.884;14.818;2022-12-29T00:48:44;6.70;99.90
5924;DHT22;2987;50.884;14.818;2022-12-29T00:51:29;6.60;99.90
5924;DHT22;2987;50.884;14.818;2022-12-29T00:53:55;6.60;99.90
5924;DHT22;2987;50.884;14.818;2022-12-29T00:56:21;6.70;99.90
5924;DHT22;2987;50.884;14.818;2022-12-29T00:58:47;6.40;99.90
5924;DHT22;2987;50.884;14.818;2022-12-29T01:01:13;6.70;99.90
5924;DHT22;2987;50.884;14.818;2022-12-29T01:03:40;6.60;99.90
5924;DHT22;2987;50.884;14.818;2022-12-29T01:06:08;6.60;99.90
5924;DHT22;2987;50.884;14.818;2022-12-29T01:08:37;6.70;99.90
5924;DHT22;2987;50.884;14.818;2022-12-29T01:11:08;6.60;99.90
5924;DHT22;2987;50.884;14.818;2022-12-29T01:13:35;6.70;99.90
5924;DHT22;2987;50.884;14.818;2022-12-29T01:16:04;6.50;99.90
5924;DHT22;2987;50.884;14.818;2022-12-29T01:18:31;6.60;99.90
5924;DHT22;2987;50.884;14.818;2022-12-29T01:21:00;6.70;99.90
5924;DHT22;2987;50.884;14.818;2022-12-29T01:23:27;6.80;99.90
5924;DHT22;2987;50.884;14.818;2022-12-29T01:25:54;6.70;99.90
5924;DHT22;2987;50.884;14.818;2022-12-29T01:28:20;6.70;99.90
5924;DHT22;2987;50.884;14.818;2022-12-29T01:30:46;6.50;99.90
5924;DHT22;2987;50.884;14.818;2022-12-29T01:33:13;6.70;99.90
5924;DHT22;2987;50.884;14.818;2022-12-29T01:35:39;6.70;99.90
5924;DHT22;2987;50.884;14.818;2022-12-29T01:38:06;6.70;99.90
5924;DHT22;2987;50.884;14.818;2022-12-29T01:40:35;6.60;99.90
5924;DHT22;2987;50.884;14.818;2022-12-29T01:43:11;6.90;99.90
5924;DHT22;2987;50.884;14.818;2022-12-29T01:45:44;6.50;99.90
5924;DHT22;2987;50.884;14.818;2022-12-29T01:48:14;6.70;99.90
5924;DHT22;2987;50.884;14.818;2022-12-29T01:50:44;6.50;99.90
5924;DHT22;2987;50.884;14.818;2022-12-29T01:53:15;6.90;99.90
5924;DHT22;2987;50.884;14.818;2022-12-29T01:55:48;6.50;99.90
5924;DHT22;2987;50.884;14.818;2022-12-29T01:58:16;6.60;99.90
5924;DHT22;2987;50.884;14.818;2022-12-29T02:00:44;6.70;99.90
5924;DHT22;2987;50.884;14.818;2022-12-29T02:03:10;6.70;99.90
5924;DHT22;2987;50.884;14.818;2022-12-29T02:05:54;6.60;99.90
5924;DHT22;2987;50.884;14.818;2022-12-29T02:08:24;6.70;99.90
5924;DHT22;2987;50.884;14.818;2022-12-29T02:10:51;6.60;99.90
5924;DHT22;2987;50.884;14.818;2022-12-29T02:13:24;6.70;99.90
5924;DHT22;2987;50.884;14.818;2022-12-29T02:16:08;6.60;99.90
5924;DHT22;2987;50.884;14.818;2022-12-29T02:19:22;6.70;99.90
5924;DHT22;2987;50.884;14.818;2022-12-29T02:22:09;6.20;99.90
5924;DHT22;2987;50.884;14.818;2022-12-29T02:32:30;6.10;99.90
5924;DHT22;2987;50.884;14.818;2022-12-29T02:38:03;6.00;99.90
5924;DHT22;2987;50.884;14.818;2022-12-29T02:40:36;6.10;99.90
5924;DHT22;2987;50.884;14.818;2022-12-29T02:43:26;5.90;99.90
5924;DHT22;2987;50.884;14.818;2022-12-29T02:46:03;6.10;99.90
5924;DHT22;2987;50.884;14.818;2022-12-29T02:48:41;5.90;99.90
5924;DHT22;2987;50.884;14.818;2022-12-29T02:51:14;6.00;99.90
5924;DHT22;2987;50.884;14.818;2022-12-29T02:53:42;6.00;99.90
5924;DHT22;2987;50.884;14.818;2022-12-29T02:56:28;6.10;99.90
5924;DHT22;2987;50.884;14.818;2022-12-29T02:58:54;5.70;99.90
5924;DHT22;2987;50.884;14.818;2022-12-29T03:01:49;5.80;99.90
5924;DHT22;2987;50.884;14.818;2022-12-29T03:07:30;5.80;99.90
5924;DHT22;2987;50.884;14.818;2022-12-29T03:16:08;5.50;99.90
5924;DHT22;2987;50.884;14.818;2022-12-29T03:23:54;6.00;99.90
5924;DHT22;2987;50.884;14.818;2022-12-29T03:26:21;5.50;99.90
5924;DHT22;2987;50.884;14.818;2022-12-29T03:28:52;5.50;99.90
5924;DHT22;2987;50.884;14.818;2022-12-29T03:31:23;6.00;99.90
5924;DHT22;2987;50.884;14.818;2022-12-29T03:33:52;5.80;99.90
5924;DHT22;2987;50.884;14.818;2022-12-29T03:36:28;5.60;99.90
5924;DHT22;2987;50.884;14.818;2022-12-29T03:39:07;5.90;99.90
5924;DHT22;2987;50.884;14.818;2022-12-29T03:41:34;5.50;99.90
5924;DHT22;2987;50.884;14.818;2022-12-29T03:44:06;6.00;99.90
5924;DHT22;2987;50.884;14.818;2022-12-29T03:46:33;6.00;99.90
5924;DHT22;2987;50.884;14.818;2022-12-29T03:49:00;6.10;99.90
5924;DHT22;2987;50.884;14.818;2022-12-29T03:51:26;6.00;99.90
5924;DHT22;2987;50.884;14.818;2022-12-29T03:53:53;5.70;99.90
5924;DHT22;2987;50.884;14.818;2022-12-29T03:56:20;6.00;99.90
5924;DHT22;2987;50.884;14.818;2022-12-29T03:58:48;5.70;99.90
5924;DHT22;2987;50.884;14.818;2022-12-29T04:01:21;5.80;99.90
5924;DHT22;2987;50.884;14.818;2022-12-29T04:03:47;6.10;99.90
5924;DHT22;2987;50.884;14.818;2022-12-29T04:06:14;5.90;99.90
5924;DHT22;2987;50.884;14.818;2022-12-29T04:09:00;6.00;99.90
5924;DHT22;2987;50.884;14.818;2022-12-29T04:11:27;6.30;99.90
5924;DHT22;2987;50.884;14.818;2022-12-29T04:13:53;5.80;99.90
5924;DHT22;2987;50.884;14.818;2022-12-29T04:16:19;6.30;99.90
5924;DHT22;2987;50.884;14.818;2022-12-29T04:18:47;5.90;99.90
5924;DHT22;2987;50.884;14.818;2022-12-29T04:21:13;6.20;99.90
5924;DHT22;2987;50.884;14.818;2022-12-29T04:23:41;6.30;99.90
5924;DHT22;2987;50.884;14.818;2022-12-29T04:26:09;6.20;99.90
5924;DHT22;2987;50.884;14.818;2022-12-29T04:28:44;6.10;99.90
5924;DHT22;2987;50.884;14.818;2022-12-29T04:31:30;6.40;99.90
5924;DHT22;2987;50.884;14.818;2022-12-29T04:33:56;6.30;99.90
5924;DHT22;2987;50.884;14.818;2022-12-29T04:36:23;6.10;99.90
5924;DHT22;2987;50.884;14.818;2022-12-29T04:38:49;6.10;99.90
5924;DHT22;2987;50.884;14.818;2022-12-29T04:41:15;6.10;99.90
5924;DHT22;2987;50.884;14.818;2022-12-29T04:43:41;5.90;99.90
5924;DHT22;2987;50.884;14.818;2022-12-29T04:46:22;6.20;99.90
5924;DHT22;2987;50.884;14.818;2022-12-29T04:48:56;6.40;99.90
5924;DHT22;2987;50.884;14.818;2022-12-29T04:51:30;6.20;99.90
5924;DHT22;2987;50.884;14.818;2022-12-29T04:53:56;6.30;99.90
5924;DHT22;2987;50.884;14.818;2022-12-29T04:56:23;6.20;99.90
5924;DHT22;2987;50.884;14.818;2022-12-29T04:58:49;6.20;99.90
5924;DHT22;2987;50.884;14.818;2022-12-29T05:01:15;6.40;99.90
5924;DHT22;2987;50.884;14.818;2022-12-29T05:03:43;6.20;99.90
5924;DHT22;2987;50.884;14.818;2022-12-29T05:06:10;6.40;99.90
5924;DHT22;2987;50.884;14.818;2022-12-29T05:08:39;6.20;99.90
5924;DHT22;2987;50.884;14.818;2022-12-29T05:11:06;6.20;99.90
5924;DHT22;2987;50.884;14.818;2022-12-29T05:13:35;6.30;99.90
5924;DHT22;2987;50.884;14.818;2022-12-29T05:16:02;6.30;99.90
5924;DHT22;2987;50.884;14.818;2022-12-29T05:18:28;6.40;99.90
5924;DHT22;2987;50.884;14.818;2022-12-29T05:20:54;6.60;99.90
5924;DHT22;2987;50.884;14.818;2022-12-29T05:23:22;6.60;99.90
5924;DHT22;2987;50.884;14.818;2022-12-29T05:25:55;6.60;99.90
5924;DHT22;2987;50.884;14.818;2022-12-29T05:28:30;6.70;99.90
5924;DHT22;2987;50.884;14.818;2022-12-29T05:31:01;6.60;99.90
5924;DHT22;2987;50.884;14.818;2022-12-29T05:33:29;6.60;99.90
5924;DHT22;2987;50.884;14.818;2022-12-29T05:35:55;6.70;99.90
5924;DHT22;2987;50.884;14.818;2022-12-29T05:38:22;6.60;99.90
5924;DHT22;2987;50.884;14.818;2022-12-29T05:40:51;6.70;99.90
5924;DHT22;2987;50.884;14.818;2022-12-29T05:43:37;6.70;99.90
5924;DHT22;2987;50.884;14.818;2022-12-29T05:46:06;6.70;99.90
5924;DHT22;2987;50.884;14.818;2022-12-29T05:48:32;6.50;99.90
5924;DHT22;2987;50.884;14.818;2022-12-29T05:51:16;6.70;99.90
5924;DHT22;2987;50.884;14.818;2022-12-29T05:53:47;6.60;99.90
5924;DHT22;2987;50.884;14.818;2022-12-29T05:56:13;6.70;99.90
5924;DHT22;2987;50.884;14.818;2022-12-29T05:58:41;6.50;99.90
5924;DHT22;2987;50.884;14.818;2022-12-29T06:01:07;7.00;99.90
5924;DHT22;2987;50.884;14.818;2022-12-29T06:03:33;7.00;99.90
5924;DHT22;2987;50.884;14.818;2022-12-29T06:06:00;7.10;99.90
5924;DHT22;2987;50.884;14.818;2022-12-29T06:08:27;7.00;99.90
5924;DHT22;2987;50.884;14.818;2022-12-29T06:10:54;7.20;99.90
5924;DHT22;2987;50.884;14.818;2022-12-29T06:13:20;7.40;99.90
5924;DHT22;2987;50.884;14.818;2022-12-29T06:15:52;7.20;99.90
5924;DHT22;2987;50.884;14.818;2022-12-29T06:18:18;7.20;99.90
5924;DHT22;2987;50.884;14.818;2022-12-29T06:20:45;7.10;99.90
5924;DHT22;2987;50.884;14.818;2022-12-29T06:23:11;7.00;99.90
5924;DHT22;2987;50.884;14.818;2022-12-29T06:25:39;7.00;99.90
5924;DHT22;2987;50.884;14.818;2022-12-29T06:28:06;7.10;99.90
5924;DHT22;2987;50.884;14.818;2022-12-29T06:30:32;7.10;99.90
5924;DHT22;2987;50.884;14.818;2022-12-29T06:33:00;7.00;99.90
5924;DHT22;2987;50.884;14.818;2022-12-29T06:35:26;7.10;99.90
5924;DHT22;2987;50.884;14.818;2022-12-29T06:37:52;7.10;99.90
5924;DHT22;2987;50.884;14.818;2022-12-29T06:40:20;6.70;99.90
5924;DHT22;2987;50.884;14.818;2022-12-29T06:43:07;7.00;99.90
5924;DHT22;2987;50.884;14.818;2022-12-29T06:45:38;7.00;99.90
5924;DHT22;2987;50.884;14.818;2022-12-29T06:48:06;6.90;99.90
5924;DHT22;2987;50.884;14.818;2022-12-29T06:50:31;6.80;99.90
5924;DHT22;2987;50.884;14.818;2022-12-29T06:52:58;6.80;99.90
5924;DHT22;2987;50.884;14.818;2022-12-29T06:55:23;7.10;99.90
5924;DHT22;2987;50.884;14.818;2022-12-29T06:57:49;6.50;99.90
5924;DHT22;2987;50.884;14.818;2022-12-29T07:00:16;6.70;99.90
5924;DHT22;2987;50.884;14.818;2022-12-29T07:02:42;6.50;99.90
5924;DHT22;2987;50.884;14.818;2022-12-29T07:05:09;6.50;99.90
5924;DHT22;2987;50.884;14.818;2022-12-29T07:07:36;6.90;99.90
5924;DHT22;2987;50.884;14.818;2022-12-29T07:10:03;7.00;99.90
5924;DHT22;2987;50.884;14.818;2022-12-29T07:12:29;6.90;99.90
5924;DHT22;2987;50.884;14.818;2022-12-29T07:14:55;7.10;99.90
5924;DHT22;2987;50.884;14.818;2022-12-29T07:17:21;6.80;99.90
5924;DHT22;2987;50.884;14.818;2022-12-29T07:19:47;7.00;99.90
5924;DHT22;2987;50.884;14.818;2022-12-29T07:22:13;7.00;99.90
5924;DHT22;2987;50.884;14.818;2022-12-29T07:24:42;6.90;99.90
5924;DHT22;2987;50.884;14.818;2022-12-29T07:27:09;7.00;99.90
5924;DHT22;2987;50.884;14.818;2022-12-29T07:29:37;6.90;99.90
5924;DHT22;2987;50.884;14.818;2022-12-29T07:32:04;7.00;99.90
5924;DHT22;2987;50.884;14.818;2022-12-29T07:34:31;6.90;99.90
5924;DHT22;2987;50.884;14.818;2022-12-29T07:36:57;7.00;99.90
5924;DHT22;2987;50.884;14.818;2022-12-29T07:39:23;6.90;99.90
5924;DHT22;2987;50.884;14.818;2022-12-29T07:41:49;7.10;99.90
5924;DHT22;2987;50.884;14.818;2022-12-29T07:44:19;7.10;99.90
5924;DHT22;2987;50.884;14.818;2022-12-29T07:47:05;7.10;99.90
5924;DHT22;2987;50.884;14.818;2022-12-29T07:49:32;7.00;99.90
5924;DHT22;2987;50.884;14.818;2022-12-29T07:51:58;6.80;99.90
5924;DHT22;2987;50.884;14.818;2022-12-29T07:54:24;6.90;99.90
5924;DHT22;2987;50.884;14.818;2022-12-29T07:56:50;7.20;99.90
5924;DHT22;2987;50.884;14.818;2022-12-29T07:59:17;7.20;99.90
5924;DHT22;2987;50.884;14.818;2022-12-29T08:01:43;7.20;99.90
5924;DHT22;2987;50.884;14.818;2022-12-29T08:04:34;7.40;99.90
5924;DHT22;2987;50.884;14.818;2022-12-29T08:07:00;7.30;99.90
5924;DHT22;2987;50.884;14.818;2022-12-29T08:09:27;7.40;99.90
5924;DHT22;2987;50.884;14.818;2022-12-29T08:11:54;7.30;99.90
5924;DHT22;2987;50.884;14.818;2022-12-29T08:14:20;7.30;99.90
5924;DHT22;2987;50.884;14.818;2022-12-29T08:16:47;7.40;99.90
5924;DHT22;2987;50.884;14.818;2022-12-29T08:19:13;7.30;99.90
5924;DHT22;2987;50.884;14.818;2022-12-29T08:21:39;7.30;99.90
5924;DHT22;2987;50.884;14.818;2022-12-29T08:24:06;7.30;99.90
5924;DHT22;2987;50.884;14.818;2022-12-29T08:26:32;7.50;99.90
5924;DHT22;2987;50.884;14.818;2022-12-29T08:28:58;7.20;99.90
5924;DHT22;2987;50.884;14.818;2022-12-29T08:31:24;7.50;99.90
5924;DHT22;2987;50.884;14.818;2022-12-29T08:33:51;7.50;99.90
5924;DHT22;2987;50.884;14.818;2022-12-29T08:36:17;7.60;99.90
5924;DHT22;2987;50.884;14.818;2022-12-29T08:38:43;7.80;99.90
5924;DHT22;2987;50.884;14.818;2022-12-29T08:41:09;7.80;99.90
5924;DHT22;2987;50.884;14.818;2022-12-29T08:43:35;8.10;99.90
5924;DHT22;2987;50.884;14.818;2022-12-29T08:46:01;7.90;99.90
5924;DHT22;2987;50.884;14.818;2022-12-29T08:48:27;8.00;99.90
5924;DHT22;2987;50.884;14.818;2022-12-29T08:50:54;8.00;99.90
5924;DHT22;2987;50.884;14.818;2022-12-29T08:53:20;7.90;99.90
5924;DHT22;2987;50.884;14.818;2022-12-29T08:55:51;8.00;99.90
5924;DHT22;2987;50.884;14.818;2022-12-29T08:58:23;8.20;99.90
5924;DHT22;2987;50.884;14.818;2022-12-29T09:00:55;8.20;99.90
5924;DHT22;2987;50.884;14.818;2022-12-29T09:03:22;8.20;99.90
5924;DHT22;2987;50.884;14.818;2022-12-29T09:05:50;8.20;99.90
5924;DHT22;2987;50.884;14.818;2022-12-29T09:08:17;8.40;99.90
5924;DHT22;2987;50.884;14.818;2022-12-29T09:10:44;8.30;99.90
5924;DHT22;2987;50.884;14.818;2022-12-29T09:13:11;8.60;99.90
5924;DHT22;2987;50.884;14.818;2022-12-29T09:15:39;8.60;99.90
5924;DHT22;2987;50.884;14.818;2022-12-29T09:18:06;8.60;99.90
5924;DHT22;2987;50.884;14.818;2022-12-29T09:20:33;8.70;99.90
5924;DHT22;2987;50.884;14.818;2022-12-29T09:23:00;8.90;99.90
5924;DHT22;2987;50.884;14.818;2022-12-29T09:25:26;8.90;99.90
5924;DHT22;2987;50.884;14.818;2022-12-29T09:27:53;8.90;99.90
5924;DHT22;2987;50.884;14.818;2022-12-29T09:30:21;8.70;99.90
5924;DHT22;2987;50.884;14.818;2022-12-29T09:32:48;8.90;99.90
5924;DHT22;2987;50.884;14.818;2022-12-29T09:35:15;8.60;99.90
5924;DHT22;2987;50.884;14.818;2022-12-29T09:37:43;9.00;99.90
5924;DHT22;2987;50.884;14.818;2022-12-29T09:40:24;8.90;99.90
5924;DHT22;2987;50.884;14.818;2022-12-29T09:43:11;8.80;99.90
5924;DHT22;2987;50.884;14.818;2022-12-29T09:46:03;9.00;99.90
5924;DHT22;2987;50.884;14.818;2022-12-29T09:48:37;9.00;99.90
5924;DHT22;2987;50.884;14.818;2022-12-29T09:53:36;9.10;99.90
5924;DHT22;2987;50.884;14.818;2022-12-29T09:56:05;9.30;99.90
5924;DHT22;2987;50.884;14.818;2022-12-29T09:58:39;9.20;99.90
5924;DHT22;2987;50.884;14.818;2022-12-29T10:01:17;9.10;99.90
5924;DHT22;2987;50.884;14.818;2022-12-29T10:03:50;9.30;99.90
5924;DHT22;2987;50.884;14.818;2022-12-29T10:06:25;9.10;99.90
5924;DHT22;2987;50.884;14.818;2022-12-29T10:15:05;9.00;99.90
5924;DHT22;2987;50.884;14.818;2022-12-29T10:25:44;9.10;99.90
5924;DHT22;2987;50.884;14.818;2022-12-29T10:28:21;9.00;99.90
5924;DHT22;2987;50.884;14.818;2022-12-29T10:33:18;9.20;99.90
5924;DHT22;2987;50.884;14.818;2022-12-29T10:35:47;9.40;99.90
5924;DHT22;2987;50.884;14.818;2022-12-29T10:38:22;9.60;99.90
5924;DHT22;2987;50.884;14.818;2022-12-29T10:41:00;9.60;99.90
5924;DHT22;2987;50.884;14.818;2022-12-29T10:43:30;9.90;99.90
5924;DHT22;2987;50.884;14.818;2022-12-29T10:46:02;9.90;99.90
5924;DHT22;2987;50.884;14.818;2022-12-29T10:48:33;9.90;99.90
5924;DHT22;2987;50.884;14.818;2022-12-29T10:51:02;10.10;99.90
5924;DHT22;2987;50.884;14.818;2022-12-29T10:53:40;10.30;99.90
5924;DHT22;2987;50.884;14.818;2022-12-29T10:56:21;10.20;99.90
5924;DHT22;2987;50.884;14.818;2022-12-29T10:58:51;10.30;99.90
5924;DHT22;2987;50.884;14.818;2022-12-29T11:01:20;10.60;99.90
5924;DHT22;2987;50.884;14.818;2022-12-29T11:03:59;10.60;99.90
5924;DHT22;2987;50.884;14.818;2022-12-29T11:06:29;10.70;99.90
5924;DHT22;2987;50.884;14.818;2022-12-29T11:09:12;10.60;99.90
5924;DHT22;2987;50.884;14.818;2022-12-29T11:11:40;10.50;99.90
5924;DHT22;2987;50.884;14.818;2022-12-29T11:14:18;10.60;99.90
5924;DHT22;2987;50.884;14.818;2022-12-29T11:16:58;10.30;99.90
5924;DHT22;2987;50.884;14.818;2022-12-29T11:19:28;10.10;99.90
5924;DHT22;2987;50.884;14.818;2022-12-29T11:22:28;9.90;99.90
5924;DHT22;2987;50.884;14.818;2022-12-29T11:25:04;9.80;99.90
5924;DHT22;2987;50.884;14.818;2022-12-29T11:27:31;9.90;99.90
5924;DHT22;2987;50.884;14.818;2022-12-29T11:29:58;9.70;99.90
5924;DHT22;2987;50.884;14.818;2022-12-29T11:32:26;9.70;99.90
5924;DHT22;2987;50.884;14.818;2022-12-29T11:34:57;9.50;99.90
5924;DHT22;2987;50.884;14.818;2022-12-29T11:37:44;9.50;99.90
5924;DHT22;2987;50.884;14.818;2022-12-29T11:40:19;9.50;99.90
5924;DHT22;2987;50.884;14.818;2022-12-29T11:42:50;9.70;99.90
5924;DHT22;2987;50.884;14.818;2022-12-29T11:45:28;9.90;99.90
5924;DHT22;2987;50.884;14.818;2022-12-29T11:48:09;9.90;99.90
5924;DHT22;2987;50.884;14.818;2022-12-29T11:50:41;10.00;99.90
5924;DHT22;2987;50.884;14.818;2022-12-29T11:53:20;10.10;99.90
5924;DHT22;2987;50.884;14.818;2022-12-29T11:55:59;10.10;99.90
5924;DHT22;2987;50.884;14.818;2022-12-29T11:58:31;9.90;99.90
5924;DHT22;2987;50.884;14.818;2022-12-29T12:01:06;9.90;99.90
5924;DHT22;2987;50.884;14.818;2022-12-29T12:03:37;10.00;99.90
5924;DHT22;2987;50.884;14.818;2022-12-29T12:06:07;9.90;99.90
5924;DHT22;2987;50.884;14.818;2022-12-29T12:08:58;9.90;99.90
5924;DHT22;2987;50.884;14.818;2022-12-29T12:19:46;9.90;99.90
5924;DHT22;2987;50.884;14.818;2022-12-29T12:22:34;9.90;99.90
5924;DHT22;2987;50.884;14.818;2022-12-29T12:30:22;9.90;99.90
5924;DHT22;2987;50.884;14.818;2022-12-29T12:33:02;9.80;99.90
5924;DHT22;2987;50.884;14.818;2022-12-29T12:35:37;10.10;99.90
5924;DHT22;2987;50.884;14.818;2022-12-29T12:38:22;10.00;99.90
5924;DHT22;2987;50.884;14.818;2022-12-29T12:41:09;9.90;99.90
5924;DHT22;2987;50.884;14.818;2022-12-29T12:43:49;9.90;99.90
5924;DHT22;2987;50.884;14.818;2022-12-29T13:00:15;9.90;99.90
5924;DHT22;2987;50.884;14.818;2022-12-29T13:23:31;9.60;99.90
5924;DHT22;2987;50.884;14.818;2022-12-29T13:31:33;9.40;99.90
5924;DHT22;2987;50.884;14.818;2022-12-29T13:39:33;9.50;99.90
5924;DHT22;2987;50.884;14.818;2022-12-29T13:44:27;9.30;99.90
5924;DHT22;2987;50.884;14.818;2022-12-29T13:46:55;9.50;99.90
5924;DHT22;2987;50.884;14.818;2022-12-29T13:49:23;9.40;99.90
5924;DHT22;2987;50.884;14.818;2022-12-29T13:51:57;9.30;99.90
5924;DHT22;2987;50.884;14.818;2022-12-29T13:54:42;9.20;99.90
5924;DHT22;2987;50.884;14.818;2022-12-29T13:57:35;9.10;99.90
5924;DHT22;2987;50.884;14.818;2022-12-29T14:03:11;9.30;99.90
5924;DHT22;2987;50.884;14.818;2022-12-29T14:05:40;9.30;99.90
5924;DHT22;2987;50.884;14.818;2022-12-29T14:08:14;9.20;99.90
5924;DHT22;2987;50.884;14.818;2022-12-29T14:10:50;9.10;99.90
5924;DHT22;2987;50.884;14.818;2022-12-29T14:13:20;9.00;99.90
5924;DHT22;2987;50.884;14.818;2022-12-29T14:15:54;9.10;99.90
5924;DHT22;2987;50.884;14.818;2022-12-29T14:18:22;9.20;99.90
5924;DHT22;2987;50.884;14.818;2022-12-29T14:20:58;8.90;99.90
5924;DHT22;2987;50.884;14.818;2022-12-29T14:23:43;9.10;99.90
5924;DHT22;2987;50.884;14.818;2022-12-29T14:28:45;9.00;99.90
5924;DHT22;2987;50.884;14.818;2022-12-29T14:31:33;9.20;99.90
5924;DHT22;2987;50.884;14.818;2022-12-29T14:37:02;9.10;99.90
5924;DHT22;2987;50.884;14.818;2022-12-29T14:39:36;9.10;99.90
5924;DHT22;2987;50.884;14.818;2022-12-29T14:42:14;9.10;99.90
5924;DHT22;2987;50.884;14.818;2022-12-29T14:45:21;9.10;99.90
5924;DHT22;2987;50.884;14.818;2022-12-29T14:47:41;9.10;99.90
5924;DHT22;2987;50.884;14.818;2022-12-29T14:50:14;9.20;99.90
5924;DHT22;2987;50.884;14.818;2022-12-29T14:52:59;9.20;99.90
5924;DHT22;2987;50.884;14.818;2022-12-29T14:55:40;9.20;99.90
5924;DHT22;2987;50.884;14.818;2022-12-29T14:58:31;9.20;99.90
5924;DHT22;2987;50.884;14.818;2022-12-29T15:00:59;9.20;99.90
5924;DHT22;2987;50.884;14.818;2022-12-29T15:03:32;9.30;99.90
5924;DHT22;2987;50.884;14.818;2022-12-29T15:06:05;9.00;99.90
5924;DHT22;2987;50.884;14.818;2022-12-29T15:08:37;9.30;99.90
5924;DHT22;2987;50.884;14.818;2022-12-29T15:11:19;9.30;99.90
5924;DHT22;2987;50.884;14.818;2022-12-29T15:13:46;9.20;99.90
5924;DHT22;2987;50.884;14.818;2022-12-29T15:16:25;9.60;99.90
5924;DHT22;2987;50.884;14.818;2022-12-29T15:18:52;9.50;99.90
5924;DHT22;2987;50.884;14.818;2022-12-29T15:21:29;9.50;99.90
5924;DHT22;2987;50.884;14.818;2022-12-29T15:23:56;9.30;99.90
5924;DHT22;2987;50.884;14.818;2022-12-29T15:26:23;9.60;99.90
5924;DHT22;2987;50.884;14.818;2022-12-29T15:29:01;9.60;99.90
5924;DHT22;2987;50.884;14.818;2022-12-29T15:31:27;9.50;99.90
5924;DHT22;2987;50.884;14.818;2022-12-29T15:34:09;9.50;99.90
5924;DHT22;2987;50.884;14.818;2022-12-29T15:36:38;9.60;99.90
5924;DHT22;2987;50.884;14.818;2022-12-29T15:39:28;9.40;99.90
5924;DHT22;2987;50.884;14.818;2022-12-29T15:42:06;9.40;99.90
5924;DHT22;2987;50.884;14.818;2022-12-29T15:44:38;9.40;99.90
5924;DHT22;2987;50.884;14.818;2022-12-29T15:49:49;9.30;99.90
5924;DHT22;2987;50.884;14.818;2022-12-29T15:52:19;9.50;99.90
5924;DHT22;2987;50.884;14.818;2022-12-29T15:54:47;9.60;99.90
5924;DHT22;2987;50.884;14.818;2022-12-29T15:57:26;9.20;99.90
5924;DHT22;2987;50.884;14.818;2022-12-29T15:59:53;9.40;99.90
5924;DHT22;2987;50.884;14.818;2022-12-29T16:02:22;9.30;99.90
5924;DHT22;2987;50.884;14.818;2022-12-29T16:04:50;9.40;99.90
5924;DHT22;2987;50.884;14.818;2022-12-29T16:07:27;9.60;99.90
5924;DHT22;2987;50.884;14.818;2022-12-29T16:09:57;9.60;99.90
5924;DHT22;2987;50.884;14.818;2022-12-29T16:12:30;9.30;99.90
5924;DHT22;2987;50.884;14.818;2022-12-29T16:14:59;9.50;99.90
5924;DHT22;2987;50.884;14.818;2022-12-29T16:17:29;9.50;99.90
5924;DHT22;2987;50.884;14.818;2022-12-29T16:19:59;9.10;99.90
5924;DHT22;2987;50.884;14.818;2022-12-29T16:22:32;9.00;99.90
5924;DHT22;2987;50.884;14.818;2022-12-29T16:25:03;9.20;99.90
5924;DHT22;2987;50.884;14.818;2022-12-29T16:27:37;9.30;99.90
5924;DHT22;2987;50.884;14.818;2022-12-29T16:30:20;9.20;99.90
5924;DHT22;2987;50.884;14.818;2022-12-29T16:32:50;9.10;99.90
5924;DHT22;2987;50.884;14.818;2022-12-29T16:35:23;9.00;99.90
5924;DHT22;2987;50.884;14.818;2022-12-29T16:38:12;9.50;99.90
5924;DHT22;2987;50.884;14.818;2022-12-29T16:40:58;9.60;99.90
5924;DHT22;2987;50.884;14.818;2022-12-29T16:43:26;9.30;99.90
5924;DHT22;2987;50.884;14.818;2022-12-29T16:46:25;9.20;99.90
5924;DHT22;2987;50.884;14.818;2022-12-29T16:48:55;9.40;99.90
5924;DHT22;2987;50.884;14.818;2022-12-29T16:51:37;9.50;99.90
5924;DHT22;2987;50.884;14.818;2022-12-29T16:54:04;9.50;99.90
5924;DHT22;2987;50.884;14.818;2022-12-29T16:56:34;9.40;99.90
5924;DHT22;2987;50.884;14.818;2022-12-29T16:59:06;9.30;99.90
5924;DHT22;2987;50.884;14.818;2022-12-29T17:01:37;9.00;99.90
5924;DHT22;2987;50.884;14.818;2022-12-29T17:04:08;9.10;99.90
5924;DHT22;2987;50.884;14.818;2022-12-29T17:06:34;9.10;99.90
5924;DHT22;2987;50.884;14.818;2022-12-29T17:09:15;9.00;99.90
5924;DHT22;2987;50.884;14.818;2022-12-29T17:11:42;9.20;99.90
5924;DHT22;2987;50.884;14.818;2022-12-29T17:20:16;9.10;99.90
5924;DHT22;2987;50.884;14.818;2022-12-29T17:22:43;9.10;99.90
5924;DHT22;2987;50.884;14.818;2022-12-29T17:25:20;9.20;99.90
5924;DHT22;2987;50.884;14.818;2022-12-29T17:27:50;9.30;99.90
5924;DHT22;2987;50.884;14.818;2022-12-29T17:30:21;9.10;99.90
5924;DHT22;2987;50.884;14.818;2022-12-29T17:32:52;8.90;99.90
5924;DHT22;2987;50.884;14.818;2022-12-29T17:35:20;9.10;99.90
5924;DHT22;2987;50.884;14.818;2022-12-29T17:37:47;9.00;99.90
5924;DHT22;2987;50.884;14.818;2022-12-29T17:40:16;9.30;99.90
5924;DHT22;2987;50.884;14.818;2022-12-29T17:42:46;9.00;99.90
5924;DHT22;2987;50.884;14.818;2022-12-29T17:45:15;9.20;99.90
5924;DHT22;2987;50.884;14.818;2022-12-29T17:47:42;9.30;99.90
5924;DHT22;2987;50.884;14.818;2022-12-29T17:50:12;9.20;99.90
5924;DHT22;2987;50.884;14.818;2022-12-29T17:52:40;9.20;99.90
5924;DHT22;2987;50.884;14.818;2022-12-29T17:55:14;9.10;99.90
5924;DHT22;2987;50.884;14.818;2022-12-29T17:57:41;9.10;99.90
5924;DHT22;2987;50.884;14.818;2022-12-29T18:00:14;8.90;99.90
5924;DHT22;2987;50.884;14.818;2022-12-29T18:02:41;9.00;99.90
5924;DHT22;2987;50.884;14.818;2022-12-29T18:05:20;9.20;99.90
5924;DHT22;2987;50.884;14.818;2022-12-29T18:07:48;9.10;99.90
5924;DHT22;2987;50.884;14.818;2022-12-29T18:10:14;8.90;99.90
5924;DHT22;2987;50.884;14.818;2022-12-29T18:12:43;8.90;99.90
5924;DHT22;2987;50.884;14.818;2022-12-29T18:15:20;9.10;99.90
5924;DHT22;2987;50.884;14.818;2022-12-29T18:17:46;8.90;99.90
5924;DHT22;2987;50.884;14.818;2022-12-29T18:20:13;9.30;99.90
5924;DHT22;2987;50.884;14.818;2022-12-29T18:22:40;9.00;99.90
5924;DHT22;2987;50.884;14.818;2022-12-29T18:25:20;9.30;99.90
5924;DHT22;2987;50.884;14.818;2022-12-29T18:27:48;9.00;99.90
5924;DHT22;2987;50.884;14.818;2022-12-29T18:30:14;9.20;99.90
5924;DHT22;2987;50.884;14.818;2022-12-29T18:32:41;9.20;99.90
5924;DHT22;2987;50.884;14.818;2022-12-29T18:35:19;8.80;99.90